createdAt,value
2018-09-05T00:00:43.831Z,14.80
2018-09-05T00:03:12.336Z,14.70
2018-09-05T00:05:40.838Z,14.70
2018-09-05T00:08:09.260Z,14.70
2018-09-05T00:10:37.742Z,14.70
2018-09-05T00:13:06.497Z,14.70
2018-09-05T00:15:34.970Z,14.60
2018-09-05T00:18:03.728Z,14.60
2018-09-05T00:20:32.209Z,14.50
2018-09-05T00:23:00.675Z,14.50
2018-09-05T00:25:29.126Z,14.40
2018-09-05T00:27:57.699Z,14.40
2018-09-05T00:30:26.179Z,14.40
2018-09-05T00:32:54.745Z,14.30
2018-09-05T00:35:23.245Z,14.30
2018-09-05T00:37:52.019Z,14.30
2018-09-05T00:40:20.614Z,14.20
2018-09-05T00:42:49.291Z,14.20
2018-09-05T00:45:18.670Z,14.20
2018-09-05T00:47:47.170Z,14.20
2018-09-05T00:50:15.714Z,14.30
2018-09-05T00:52:44.170Z,14.20
2018-09-05T00:55:12.648Z,14.20
2018-09-05T00:57:41.102Z,14.20
2018-09-05T01:00:09.731Z,14.20
2018-09-05T01:02:38.163Z,14.20
2018-09-05T01:05:06.728Z,14.20
2018-09-05T01:07:35.222Z,14.20
2018-09-05T01:10:03.704Z,14.20
2018-09-05T01:12:32.258Z,14.20
2018-09-05T01:15:00.728Z,14.10
2018-09-05T01:17:29.198Z,14.10
2018-09-05T01:19:57.653Z,14.10
2018-09-05T01:22:26.191Z,14.10
2018-09-05T01:24:54.665Z,14.10
2018-09-05T01:27:23.108Z,14.00
2018-09-05T01:29:51.637Z,14.00
2018-09-05T01:32:20.118Z,14.00
2018-09-05T01:34:49.228Z,14.00
2018-09-05T01:37:17.687Z,14.00
2018-09-05T01:39:46.148Z,14.00
2018-09-05T01:42:15.137Z,14.00
2018-09-05T01:44:43.575Z,14.00
2018-09-05T01:47:12.133Z,14.00
2018-09-05T01:49:40.597Z,14.00
2018-09-05T01:52:09.050Z,14.00
2018-09-05T01:54:37.494Z,14.00
2018-09-05T01:57:06.033Z,14.00
2018-09-05T01:59:34.543Z,14.00
2018-09-05T02:02:03.057Z,14.00
2018-09-05T02:04:31.548Z,14.00
2018-09-05T02:07:00.005Z,14.00
2018-09-05T02:09:29.183Z,14.00
2018-09-05T02:11:57.789Z,14.00
2018-09-05T02:14:26.253Z,13.90
2018-09-05T02:16:54.706Z,13.90
2018-09-05T02:19:23.852Z,13.80
2018-09-05T02:21:52.332Z,13.90
2018-09-05T02:24:20.770Z,13.90
2018-09-05T02:26:49.279Z,13.90
2018-09-05T02:29:17.714Z,13.90
2018-09-05T02:31:46.286Z,13.80
2018-09-05T02:34:14.744Z,13.80
2018-09-05T02:36:43.256Z,13.80
2018-09-05T02:39:12.436Z,13.80
2018-09-05T02:41:41.228Z,13.80
2018-09-05T02:44:15.030Z,13.80
2018-09-05T02:46:43.501Z,13.80
2018-09-05T02:49:11.924Z,13.80
2018-09-05T02:51:40.395Z,13.80
2018-09-05T02:54:08.851Z,13.80
2018-09-05T02:56:37.247Z,13.80
2018-09-05T02:59:05.843Z,13.80
2018-09-05T03:01:34.255Z,13.80
2018-09-05T03:04:02.808Z,13.70
2018-09-05T03:06:31.322Z,13.70
2018-09-05T03:08:59.773Z,13.70
2018-09-05T03:11:28.267Z,13.70
2018-09-05T03:13:56.832Z,13.60
2018-09-05T03:16:25.285Z,13.60
2018-09-05T03:18:53.734Z,13.60
2018-09-05T03:21:22.165Z,13.60
2018-09-05T03:23:50.623Z,13.60
2018-09-05T03:26:19.088Z,13.60
2018-09-05T03:28:47.534Z,13.50
2018-09-05T03:31:16.083Z,13.50
2018-09-05T03:33:44.538Z,13.50
2018-09-05T03:36:13.125Z,13.50
2018-09-05T03:38:41.828Z,13.50
2018-09-05T03:41:10.289Z,13.50
2018-09-05T03:43:38.776Z,13.40
2018-09-05T03:46:07.408Z,13.50
2018-09-05T03:48:36.047Z,13.40
2018-09-05T03:51:04.575Z,13.50
2018-09-05T03:53:33.058Z,13.40
2018-09-05T03:56:01.542Z,13.40
2018-09-05T03:58:29.961Z,13.40
2018-09-05T04:00:58.494Z,13.40
2018-09-05T04:03:27.004Z,13.30
2018-09-05T04:05:55.433Z,13.30
2018-09-05T04:08:23.912Z,13.30
2018-09-05T04:10:52.393Z,13.30
2018-09-05T04:13:20.878Z,13.30
2018-09-05T04:15:49.520Z,13.30
2018-09-05T04:18:17.983Z,13.30
2018-09-05T04:20:46.437Z,13.30
2018-09-05T04:23:14.959Z,13.30
2018-09-05T04:25:43.481Z,13.30
2018-09-05T04:28:12.049Z,13.30
2018-09-05T04:30:40.495Z,13.20
2018-09-05T04:33:09.033Z,13.20
2018-09-05T04:35:37.513Z,13.20
2018-09-05T04:38:06.008Z,13.20
2018-09-05T04:40:34.600Z,13.20
2018-09-05T04:43:03.077Z,13.20
2018-09-05T04:45:31.699Z,13.20
2018-09-05T04:48:00.191Z,13.20
2018-09-05T04:50:28.947Z,13.20
2018-09-05T04:52:57.428Z,13.20
2018-09-05T04:55:25.868Z,13.20
2018-09-05T04:57:54.356Z,13.20
2018-09-05T05:00:22.844Z,13.20
2018-09-05T05:02:51.358Z,13.20
2018-09-05T05:05:19.997Z,13.20
2018-09-05T05:07:48.562Z,13.30
2018-09-05T05:10:17.024Z,13.30
2018-09-05T05:12:45.540Z,13.30
2018-09-05T05:15:14.132Z,13.40
2018-09-05T05:17:44.060Z,13.40
2018-09-05T05:20:12.595Z,13.50
2018-09-05T05:22:41.758Z,13.50
2018-09-05T05:25:10.262Z,13.60
2018-09-05T05:27:38.746Z,13.70
2018-09-05T05:30:07.569Z,13.90
2018-09-05T05:32:36.079Z,14.00
2018-09-05T05:35:04.556Z,14.10
2018-09-05T05:37:32.999Z,14.20
2018-09-05T05:40:05.868Z,14.40
2018-09-05T05:42:35.098Z,14.50
2018-09-05T05:45:03.922Z,14.50
2018-09-05T05:47:33.194Z,14.60
2018-09-05T05:50:02.326Z,14.70
2018-09-05T05:52:31.226Z,14.80
2018-09-05T05:55:00.135Z,14.90
2018-09-05T05:57:29.095Z,15.00
2018-09-05T05:59:57.568Z,15.00
2018-09-05T06:02:26.059Z,15.10
2018-09-05T06:04:54.493Z,15.20
2018-09-05T06:07:22.983Z,15.20
2018-09-05T06:09:51.455Z,15.30
2018-09-05T06:12:19.925Z,15.30
2018-09-05T06:14:48.379Z,15.40
2018-09-05T06:17:17.145Z,15.50
2018-09-05T06:19:45.696Z,15.60
2018-09-05T06:22:14.136Z,15.60
2018-09-05T06:24:42.608Z,15.70
2018-09-05T06:27:11.075Z,15.80
2018-09-05T06:29:39.585Z,15.90
2018-09-05T06:32:08.035Z,16.00
2018-09-05T06:34:36.476Z,16.10
2018-09-05T06:37:05.264Z,16.10
2018-09-05T06:39:33.738Z,16.20
2018-09-05T06:42:02.206Z,16.30
2018-09-05T06:44:30.705Z,16.40
2018-09-05T06:49:27.285Z,16.60
2018-09-05T06:51:55.716Z,16.80
2018-09-05T06:54:24.196Z,17.00
2018-09-05T06:56:52.648Z,17.00
2018-09-05T06:59:21.117Z,17.10
2018-09-05T07:01:49.780Z,17.10
2018-09-05T07:04:18.269Z,17.20
2018-09-05T07:06:47.030Z,17.30
2018-09-05T07:09:15.581Z,17.40
2018-09-05T07:11:44.142Z,17.60
2018-09-05T07:14:12.662Z,17.70
2018-09-05T07:16:41.196Z,17.80
2018-09-05T07:19:10.817Z,17.90
2018-09-05T07:21:39.317Z,18.00
2018-09-05T07:24:08.112Z,18.10
2018-09-05T07:26:37.152Z,18.20
2018-09-05T07:29:05.993Z,18.30
2018-09-05T07:31:34.549Z,18.40
2018-09-05T07:34:03.029Z,18.50
2018-09-05T07:36:31.564Z,18.60
2018-09-05T07:39:00.268Z,18.80
2018-09-05T07:41:28.743Z,18.90
2018-09-05T07:43:57.220Z,19.00
2018-09-05T07:46:25.667Z,19.10
2018-09-05T07:48:54.239Z,19.20
2018-09-05T07:51:22.676Z,19.20
2018-09-05T07:53:51.177Z,19.30
2018-09-05T07:56:19.678Z,19.40
2018-09-05T07:58:48.246Z,19.40
2018-09-05T08:01:16.716Z,19.40
2018-09-05T08:03:45.233Z,19.50
2018-09-05T08:06:13.703Z,19.50
2018-09-05T08:08:42.203Z,19.60
2018-09-05T08:11:10.705Z,19.70
2018-09-05T08:13:39.221Z,19.70
2018-09-05T08:16:08.101Z,19.80
2018-09-05T08:18:36.588Z,19.80
2018-09-05T08:21:05.224Z,19.90
2018-09-05T08:23:33.716Z,20.00
2018-09-05T08:26:02.212Z,20.10
2018-09-05T08:28:30.721Z,20.30
2018-09-05T08:30:59.185Z,20.40
2018-09-05T08:33:27.693Z,20.50
2018-09-05T08:35:56.354Z,20.60
2018-09-05T08:38:24.796Z,20.60
2018-09-05T08:40:53.203Z,20.70
2018-09-05T08:43:21.722Z,20.90
2018-09-05T08:45:50.517Z,21.00
2018-09-05T08:48:18.799Z,21.10
2018-09-05T08:50:47.442Z,21.20
2018-09-05T08:53:15.972Z,21.20
2018-09-05T08:55:44.446Z,21.30
2018-09-05T08:58:12.886Z,21.40
2018-09-05T09:00:41.450Z,21.30
2018-09-05T09:03:09.896Z,21.40
2018-09-05T09:05:38.630Z,21.40
2018-09-05T09:08:07.140Z,21.50
2018-09-05T09:10:35.628Z,21.60
2018-09-05T09:13:04.205Z,21.70
2018-09-05T09:15:32.756Z,21.70
2018-09-05T09:18:01.284Z,21.70
2018-09-05T09:20:30.150Z,21.80
2018-09-05T09:22:58.634Z,21.90
2018-09-05T09:25:27.186Z,21.90
2018-09-05T09:27:55.758Z,21.90
2018-09-05T09:30:24.227Z,21.90
2018-09-05T09:32:52.667Z,21.90
2018-09-05T09:35:21.179Z,22.00
2018-09-05T09:37:49.643Z,22.20
2018-09-05T09:40:18.108Z,22.40
2018-09-05T09:42:46.565Z,22.50
2018-09-05T09:45:15.041Z,22.70
2018-09-05T09:47:43.609Z,22.80
2018-09-05T09:50:12.068Z,22.80
2018-09-05T09:52:40.533Z,23.00
2018-09-05T09:55:09.249Z,23.00
2018-09-05T09:57:38.230Z,23.10
2018-09-05T10:00:07.533Z,23.00
2018-09-05T10:02:41.475Z,23.10
2018-09-05T10:05:15.342Z,23.20
2018-09-05T10:07:49.300Z,23.10
2018-09-05T10:10:23.239Z,23.20
2018-09-05T10:12:52.450Z,23.30
2018-09-05T10:15:26.279Z,23.50
2018-09-05T10:18:00.087Z,23.60
2018-09-05T10:20:28.579Z,23.80
2018-09-05T10:22:57.083Z,23.80
2018-09-05T10:25:25.688Z,24.00
2018-09-05T10:27:54.164Z,24.00
2018-09-05T10:30:22.704Z,24.10
2018-09-05T10:32:51.162Z,24.20
2018-09-05T10:35:19.602Z,24.30
2018-09-05T10:37:48.094Z,24.40
2018-09-05T10:40:16.562Z,24.50
2018-09-05T10:42:45.090Z,24.50
2018-09-05T10:45:13.557Z,24.50
2018-09-05T10:47:42.004Z,24.70
2018-09-05T10:50:10.440Z,24.80
2018-09-05T10:52:38.903Z,24.70
2018-09-05T10:55:07.367Z,24.50
2018-09-05T10:57:35.869Z,24.60
2018-09-05T11:00:04.417Z,24.50
2018-09-05T11:02:32.849Z,24.40
2018-09-05T11:05:01.299Z,24.30
2018-09-05T11:07:29.817Z,24.50
2018-09-05T11:09:58.267Z,24.50
2018-09-05T11:12:26.771Z,24.50
2018-09-05T11:14:55.264Z,24.50
2018-09-05T11:17:23.697Z,24.60
2018-09-05T11:19:52.255Z,24.80
2018-09-05T11:22:20.831Z,24.90
2018-09-05T11:24:49.278Z,25.00
2018-09-05T11:27:17.722Z,25.00
2018-09-05T11:29:46.216Z,25.10
2018-09-05T11:32:14.692Z,24.90
2018-09-05T11:34:43.148Z,24.90
2018-09-05T11:37:11.627Z,25.00
2018-09-05T11:39:40.154Z,25.10
2018-09-05T11:42:08.712Z,25.30
2018-09-05T11:44:37.162Z,25.40
2018-09-05T11:47:05.756Z,25.30
2018-09-05T11:49:34.853Z,25.30
2018-09-05T11:52:03.487Z,25.30
2018-09-05T11:54:31.970Z,25.30
2018-09-05T11:57:00.431Z,25.30
2018-09-05T11:59:28.938Z,25.30
2018-09-05T12:01:57.762Z,25.50
2018-09-05T12:04:26.261Z,25.30
2018-09-05T12:06:54.886Z,25.20
2018-09-05T12:09:23.419Z,25.10
2018-09-05T12:11:51.936Z,25.10
2018-09-05T12:14:20.476Z,25.10
2018-09-05T12:16:48.964Z,25.10
2018-09-05T12:19:17.468Z,24.80
2018-09-05T12:21:46.099Z,24.90
2018-09-05T12:24:14.585Z,25.00
2018-09-05T12:26:43.038Z,25.10
2018-09-05T12:29:12.749Z,25.40
2018-09-05T12:31:41.986Z,25.50
2018-09-05T12:34:11.022Z,25.40
2018-09-05T12:36:39.462Z,25.40
2018-09-05T12:39:10.914Z,25.40
2018-09-05T12:41:39.479Z,25.30
2018-09-05T12:44:08.222Z,25.20
2018-09-05T12:46:37.100Z,25.00
2018-09-05T12:49:05.804Z,24.90
2018-09-05T12:51:34.303Z,24.80
2018-09-05T12:54:02.862Z,24.80
2018-09-05T12:56:31.298Z,24.80
2018-09-05T12:58:59.819Z,24.70
2018-09-05T13:01:28.367Z,24.90
2018-09-05T13:03:56.958Z,24.80
2018-09-05T13:06:25.446Z,24.90
2018-09-05T13:08:53.919Z,24.70
2018-09-05T13:11:22.472Z,24.70
2018-09-05T13:13:50.915Z,24.80
2018-09-05T13:16:19.382Z,24.80
2018-09-05T13:18:47.876Z,24.80
2018-09-05T13:21:16.411Z,24.70
2018-09-05T13:23:44.887Z,24.70
2018-09-05T13:26:13.349Z,24.80
2018-09-05T13:28:41.819Z,25.00
2018-09-05T13:31:10.311Z,24.90
2018-09-05T13:33:39.399Z,24.90
2018-09-05T13:36:08.044Z,25.10
2018-09-05T13:38:36.627Z,25.30
2018-09-05T13:41:05.148Z,25.30
2018-09-05T13:43:33.697Z,25.20
2018-09-05T13:46:02.179Z,25.00
2018-09-05T13:48:30.645Z,24.90
2018-09-05T13:50:59.147Z,24.80
2018-09-05T13:53:27.638Z,24.90
2018-09-05T13:55:56.168Z,25.10
2018-09-05T13:58:24.666Z,25.30
2018-09-05T14:00:53.178Z,25.50
2018-09-05T14:03:21.654Z,25.70
2018-09-05T14:05:50.190Z,25.70
2018-09-05T14:08:18.654Z,25.50
2018-09-05T14:10:47.118Z,25.60
2018-09-05T14:13:15.584Z,25.80
2018-09-05T14:15:44.054Z,25.90
2018-09-05T14:18:12.981Z,25.70
2018-09-05T14:20:41.605Z,25.50
2018-09-05T14:23:10.033Z,25.40
2018-09-05T14:25:38.531Z,25.30
2018-09-05T14:28:07.807Z,25.20
2018-09-05T14:30:36.374Z,25.30
2018-09-05T14:33:04.863Z,25.00
2018-09-05T14:35:33.339Z,24.90
2018-09-05T14:38:01.893Z,24.90
2018-09-05T14:40:30.373Z,25.00
2018-09-05T14:42:58.894Z,25.00
2018-09-05T14:45:27.362Z,25.10
2018-09-05T14:47:55.851Z,25.10
2018-09-05T14:50:24.306Z,25.00
2018-09-05T14:52:52.795Z,25.00
2018-09-05T14:55:21.297Z,24.70
2018-09-05T14:57:49.948Z,24.60
2018-09-05T15:00:18.445Z,24.60
2018-09-05T15:02:46.931Z,24.50
2018-09-05T15:05:15.426Z,24.30
2018-09-05T15:07:49.261Z,24.10
2018-09-05T15:10:17.926Z,24.00
2018-09-05T15:12:46.840Z,24.00
2018-09-05T15:15:16.134Z,24.10
2018-09-05T15:17:44.688Z,24.00
2018-09-05T15:20:13.126Z,23.90
2018-09-05T15:22:41.957Z,23.90
2018-09-05T15:25:10.741Z,23.80
2018-09-05T15:27:39.216Z,23.80
2018-09-05T15:30:08.477Z,23.70
2018-09-05T15:32:36.990Z,23.70
2018-09-05T15:35:05.828Z,23.60
2018-09-05T15:37:34.259Z,23.50
2018-09-05T15:40:02.900Z,23.40
2018-09-05T15:42:31.936Z,23.40
2018-09-05T15:45:00.459Z,23.40
2018-09-05T15:47:28.930Z,23.30
2018-09-05T15:49:57.469Z,23.20
2018-09-05T15:52:26.126Z,23.20
2018-09-05T15:54:54.635Z,23.20
2018-09-05T15:57:23.255Z,23.20
2018-09-05T15:59:52.657Z,23.10
2018-09-05T16:02:21.182Z,23.10
2018-09-05T16:04:49.684Z,23.10
2018-09-05T16:07:18.149Z,23.10
2018-09-05T16:09:46.638Z,23.00
2018-09-05T16:12:15.097Z,22.90
2018-09-05T16:14:43.626Z,22.90
2018-09-05T16:17:12.103Z,22.90
2018-09-05T16:19:40.670Z,22.80
2018-09-05T16:22:09.148Z,22.80
2018-09-05T16:24:37.682Z,22.80
2018-09-05T16:27:06.205Z,22.80
2018-09-05T16:29:34.716Z,22.80
2018-09-05T16:32:03.184Z,22.70
2018-09-05T16:34:31.664Z,22.70
2018-09-05T16:37:00.130Z,22.70
2018-09-05T16:39:28.729Z,22.60
2018-09-05T16:41:57.372Z,22.60
2018-09-05T16:44:26.137Z,22.60
2018-09-05T16:46:54.659Z,22.60
2018-09-05T16:49:23.113Z,22.60
2018-09-05T16:51:51.824Z,22.60
2018-09-05T16:54:20.331Z,22.60
2018-09-05T16:56:49.488Z,22.60
2018-09-05T16:59:19.048Z,22.60
2018-09-05T17:01:47.535Z,22.60
2018-09-05T17:04:16.048Z,22.50
2018-09-05T17:06:44.628Z,22.50
2018-09-05T17:09:13.582Z,22.40
2018-09-05T17:11:42.158Z,22.40
2018-09-05T17:14:10.809Z,22.40
2018-09-05T17:16:39.482Z,22.30
2018-09-05T17:19:08.253Z,22.30
2018-09-05T17:21:36.740Z,22.30
2018-09-05T17:24:05.650Z,22.20
2018-09-05T17:26:34.434Z,22.20
2018-09-05T17:29:02.947Z,22.20
2018-09-05T17:31:31.438Z,22.10
2018-09-05T17:34:00.593Z,22.00
2018-09-05T17:36:29.916Z,22.00
2018-09-05T17:38:58.494Z,21.90
2018-09-05T17:41:26.988Z,21.90
2018-09-05T17:43:55.481Z,21.90
2018-09-05T17:46:24.572Z,21.80
2018-09-05T17:48:53.252Z,21.70
2018-09-05T17:51:21.729Z,21.70
2018-09-05T17:53:50.527Z,21.60
2018-09-05T17:56:19.054Z,21.60
2018-09-05T17:58:47.823Z,21.50
2018-09-05T18:01:19.196Z,21.50
2018-09-05T18:03:47.951Z,21.50
2018-09-05T18:06:16.556Z,21.40
2018-09-05T18:08:46.086Z,21.30
2018-09-05T18:11:14.855Z,21.30
2018-09-05T18:13:43.742Z,21.20
2018-09-05T18:16:13.865Z,21.20
2018-09-05T18:18:43.412Z,21.10
2018-09-05T18:21:12.367Z,21.10
2018-09-05T18:23:41.210Z,21.00
2018-09-05T18:26:10.394Z,21.00
2018-09-05T18:28:39.206Z,21.00
2018-09-05T18:31:09.005Z,20.90
2018-09-05T18:33:38.429Z,20.80
2018-09-05T18:36:07.160Z,20.80
2018-09-05T18:38:35.777Z,20.80
2018-09-05T18:41:05.081Z,20.70
2018-09-05T18:43:33.777Z,20.60
2018-09-05T18:46:02.480Z,20.60
2018-09-05T18:48:31.029Z,20.50
2018-09-05T18:51:00.687Z,20.50
2018-09-05T18:53:30.022Z,20.40
2018-09-05T18:55:58.873Z,20.30
2018-09-05T18:58:28.286Z,20.20
2018-09-05T19:00:57.543Z,20.20
2018-09-05T19:03:26.595Z,20.10
2018-09-05T19:05:55.228Z,20.10
2018-09-05T19:08:24.407Z,20.00
2018-09-05T19:10:52.985Z,20.00
2018-09-05T19:13:21.516Z,19.90
2018-09-05T19:15:50.127Z,19.90
2018-09-05T19:18:18.873Z,19.80
2018-09-05T19:20:47.747Z,19.80
2018-09-05T19:23:18.110Z,19.70
2018-09-05T19:25:47.174Z,19.70
2018-09-05T19:28:15.803Z,19.60
2018-09-05T19:30:44.497Z,19.60
2018-09-05T19:33:13.708Z,19.50
2018-09-05T19:35:42.324Z,19.50
2018-09-05T19:38:11.017Z,19.50
2018-09-05T19:40:39.616Z,19.40
2018-09-05T19:43:08.204Z,19.40
2018-09-05T19:45:37.652Z,19.40
2018-09-05T19:48:06.575Z,19.40
2018-09-05T19:50:35.187Z,19.30
2018-09-05T19:53:03.873Z,19.30
2018-09-05T19:55:32.571Z,19.20
2018-09-05T19:58:01.549Z,19.20
2018-09-05T20:00:30.512Z,19.10
2018-09-05T20:02:59.363Z,19.10
2018-09-05T20:05:28.778Z,19.10
2018-09-05T20:07:57.556Z,19.00
2018-09-05T20:10:26.096Z,19.00
2018-09-05T20:12:54.614Z,18.90
2018-09-05T20:15:24.153Z,18.90
2018-09-05T20:17:52.777Z,18.90
2018-09-05T20:20:21.835Z,18.80
2018-09-05T20:22:50.421Z,18.80
2018-09-05T20:25:18.971Z,18.80
2018-09-05T20:27:47.640Z,18.80
2018-09-05T20:30:16.742Z,18.70
2018-09-05T20:32:45.298Z,18.70
2018-09-05T20:35:13.837Z,18.70
2018-09-05T20:37:42.419Z,18.70
2018-09-05T20:40:12.170Z,18.60
2018-09-05T20:42:40.898Z,18.60
2018-09-05T20:45:10.274Z,18.60
2018-09-05T20:47:39.439Z,18.50
2018-09-05T20:50:08.127Z,18.50
2018-09-05T20:52:36.773Z,18.50
2018-09-05T20:55:05.558Z,18.50
2018-09-05T20:57:34.621Z,18.40
2018-09-05T21:00:03.327Z,18.40
2018-09-05T21:02:32.077Z,18.40
2018-09-05T21:05:00.719Z,18.30
2018-09-05T21:07:29.504Z,18.30
2018-09-05T21:09:57.998Z,18.30
2018-09-05T21:12:27.242Z,18.30
2018-09-05T21:14:55.790Z,18.30
2018-09-05T21:17:24.260Z,18.20
2018-09-05T21:19:52.754Z,18.20
2018-09-05T21:22:21.386Z,18.20
2018-09-05T21:24:49.898Z,18.20
2018-09-05T21:27:18.504Z,18.10
2018-09-05T21:29:46.936Z,18.10
2018-09-05T21:32:15.680Z,18.10
2018-09-05T21:34:44.135Z,18.00
2018-09-05T21:37:12.624Z,17.90
2018-09-05T21:39:41.076Z,17.90
2018-09-05T21:42:09.660Z,17.80
2018-09-05T21:44:38.122Z,17.80
2018-09-05T21:47:06.683Z,17.80
2018-09-05T21:49:35.185Z,17.70
2018-09-05T21:52:03.687Z,17.60
2018-09-05T21:54:32.533Z,17.50
2018-09-05T21:57:01.019Z,17.40
2018-09-05T21:59:29.494Z,17.40
2018-09-05T22:01:58.093Z,17.30
2018-09-05T22:04:26.549Z,17.30
2018-09-05T22:06:55.122Z,17.30
2018-09-05T22:09:23.607Z,17.20
2018-09-05T22:11:52.104Z,17.20
2018-09-05T22:14:20.593Z,17.10
2018-09-05T22:16:49.110Z,17.10
2018-09-05T22:19:17.650Z,17.00
2018-09-05T22:21:46.090Z,17.00
2018-09-05T22:24:14.528Z,17.00
2018-09-05T22:26:43.003Z,17.00
2018-09-05T22:29:11.481Z,16.90
2018-09-05T22:31:39.958Z,16.90
2018-09-05T22:34:08.749Z,16.90
2018-09-05T22:36:37.225Z,16.90
2018-09-05T22:39:07.075Z,16.90
2018-09-05T22:41:35.530Z,16.90
2018-09-05T22:44:15.230Z,16.90
2018-09-05T22:46:54.847Z,16.80
2018-09-05T22:50:06.815Z,16.80
2018-09-05T22:53:23.861Z,16.80
2018-09-05T22:57:13.154Z,16.70
2018-09-05T22:59:53.247Z,16.60
2018-09-05T23:06:39.616Z,16.50
2018-09-05T23:09:08.989Z,16.40
2018-09-05T23:11:57.305Z,16.30
2018-09-05T23:14:38.051Z,16.30
2018-09-05T23:17:18.141Z,16.30
2018-09-05T23:19:58.045Z,16.20
2018-09-05T23:22:36.606Z,16.10
2018-09-05T23:25:05.107Z,16.10
2018-09-05T23:27:33.568Z,16.00
2018-09-05T23:30:02.135Z,16.00
2018-09-05T23:32:30.722Z,15.90
2018-09-05T23:34:59.156Z,16.00
2018-09-05T23:37:27.608Z,16.00
2018-09-05T23:39:56.089Z,16.10
2018-09-05T23:42:24.607Z,16.10
2018-09-05T23:44:53.057Z,16.10
2018-09-05T23:47:21.497Z,16.10
2018-09-05T23:49:50.048Z,16.20
2018-09-05T23:52:18.521Z,16.20
2018-09-05T23:54:47.031Z,16.10
2018-09-05T23:57:15.557Z,16.10
2018-09-05T23:59:44.007Z,16.10
